Time;durP1;ratioP1;P1;durP2;ratioP2;P2;SDS_P1;SDS_P2;PMS_P1;PMS_P2;Temp;Humidity;BMP_temperature;BMP_pressure;BME280_temperature;BME280_humidity;BME280_pressure;Samples;Min_cycle;Max_cycle;Signal;HPM_P1;HPM_P2
2021/04/22 00:00:17;;;;;;;9.03;7.27;;;;;;;20.01;48.29;99589.25;2046914;29;20498;-67
2021/04/22 00:01:18;;;;;;;9.73;7.68;;;;;;;20.03;48.22;99589.94;2047842;28;20045;-67
2021/04/22 00:02:18;;;;;;;12.17;8.13;;;;;;;20.02;48.26;99591.00;2047068;28;20027;-67
2021/04/22 00:03:19;;;;;;;9.87;7.10;;;;;;;20.02;48.28;99591.00;2047589;29;20557;-67
2021/04/22 00:04:19;;;;;;;10.33;7.30;;;;;;;20.01;48.25;99592.00;2047546;28;20517;-67
2021/04/22 00:05:30;;;;;;;10.00;7.10;;;;;;;20.02;48.20;99591.00;2043837;29;20118;-68
2021/04/22 00:06:31;;;;;;;8.23;6.93;;;;;;;20.03;48.28;99594.56;2051698;28;20034;-67
2021/04/22 00:07:31;;;;;;;11.10;7.37;;;;;;;20.02;48.25;99596.47;2047393;28;20133;-67
2021/04/22 00:08:32;;;;;;;8.67;7.47;;;;;;;20.00;48.26;99598.50;2047356;28;20537;-67
2021/04/22 00:09:32;;;;;;;9.00;6.83;;;;;;;20.00;47.95;99593.03;2040544;28;20023;-67
2021/04/22 00:10:37;;;;;;;9.77;7.90;;;;;;;19.99;48.24;99596.81;2040017;29;20639;-67
2021/04/22 00:11:37;;;;;;;9.43;7.00;;;;;;;19.99;48.25;99591.34;2039585;29;20035;-67
2021/04/22 00:12:38;;;;;;;9.77;7.00;;;;;;;19.98;48.08;99596.97;2039615;29;20050;-67
2021/04/22 00:13:40;;;;;;;7.47;6.60;;;;;;;19.98;48.24;99586.88;2038972;29;20119;-67
2021/04/22 00:14:41;;;;;;;8.82;7.05;;;;;;;19.98;48.19;99599.69;2046511;29;20023;-67
2021/04/22 00:15:42;;;;;;;9.47;7.57;;;;;;;19.97;48.13;99590.63;2046614;28;20019;-67
2021/04/22 00:16:43;;;;;;;9.65;7.43;;;;;;;19.98;48.16;99588.75;2046733;29;20070;-67
2021/04/22 00:17:44;;;;;;;10.20;7.20;;;;;;;19.97;48.15;99581.59;2045999;29;20405;-67
2021/04/22 00:18:45;;;;;;;8.35;7.22;;;;;;;19.96;48.19;99591.66;2047328;29;20027;-67
2021/04/22 00:19:46;;;;;;;8.55;6.85;;;;;;;19.96;48.12;99590.78;2046977;28;20049;-67
2021/04/22 00:20:47;;;;;;;9.17;7.27;;;;;;;19.94;48.17;99580.00;2046225;28;20032;-67
2021/04/22 00:21:47;;;;;;;7.88;6.40;;;;;;;19.95;48.14;99581.75;2052626;28;20397;-67
2021/04/22 00:22:48;;;;;;;13.53;7.37;;;;;;;19.95;48.09;99584.47;2045169;28;20142;-67
2021/04/22 00:23:48;;;;;;;8.77;7.03;;;;;;;19.94;48.05;99588.22;2039605;29;20020;-67
2021/04/22 00:24:49;;;;;;;8.03;6.60;;;;;;;19.93;48.10;99586.53;2046493;29;20181;-67
2021/04/22 00:25:50;;;;;;;10.10;7.20;;;;;;;19.95;48.03;99589.94;2046500;28;20027;-67
2021/04/22 00:26:50;;;;;;;8.70;6.50;;;;;;;19.93;48.12;99581.03;2047344;29;20030;-67
2021/04/22 00:27:51;;;;;;;9.30;7.00;;;;;;;19.93;48.14;99575.56;2045789;29;20071;-67
2021/04/22 00:28:51;;;;;;;8.27;6.70;;;;;;;19.94;48.04;99577.28;2046771;29;20039;-67
2021/04/22 00:29:51;;;;;;;9.03;6.70;;;;;;;19.93;48.18;99578.31;2046425;29;20030;-68
2021/04/22 00:30:52;;;;;;;8.33;6.77;;;;;;;19.93;48.05;99570.09;2045336;29;20039;-67
2021/04/22 00:31:53;;;;;;;10.13;7.23;;;;;;;19.93;48.09;99581.03;2041444;28;20635;-67
2021/04/22 00:32:54;;;;;;;7.30;6.17;;;;;;;19.91;48.05;99572.16;2041230;29;20083;-68
2021/04/22 00:33:54;;;;;;;8.53;6.73;;;;;;;19.91;48.06;99566.69;2047157;28;20031;-67
2021/04/22 00:34:54;;;;;;;9.00;6.43;;;;;;;19.91;48.06;99566.69;2046995;28;20106;-67
2021/04/22 00:35:55;;;;;;;8.80;6.93;;;;;;;19.90;48.04;99570.44;2044728;28;20038;-67
2021/04/22 00:36:55;;;;;;;9.80;6.33;;;;;;;19.90;48.05;99562.25;2049118;28;20379;-67
2021/04/22 00:38:08;;;;;;;8.53;6.63;;;;;;;19.90;48.05;99571.31;2046933;28;20582;-68
2021/04/22 00:39:09;;;;;;;6.97;6.10;;;;;;;19.90;48.09;99581.38;2047183;28;20539;-67
2021/04/22 00:40:16;;;;;;;7.53;6.30;;;;;;;19.89;48.01;99579.66;2047040;29;20497;-68
2021/04/22 00:41:16;;;;;;;8.68;6.50;;;;;;;19.88;48.06;99567.88;2046450;29;20181;-67
2021/04/22 00:42:18;;;;;;;9.23;6.17;;;;;;;19.88;47.99;99572.50;2038431;29;20139;-67
2021/04/22 00:43:19;;;;;;;9.68;7.65;;;;;;;19.89;48.02;99571.44;2046375;29;20387;-67
2021/04/22 00:44:21;;;;;;;8.45;6.80;;;;;;;19.88;47.98;99570.59;2046282;29;20031;-67
2021/04/22 00:45:21;;;;;;;8.43;6.68;;;;;;;19.87;47.95;99571.63;2046373;29;20038;-66
2021/04/22 00:46:22;;;;;;;7.13;6.27;;;;;;;19.87;48.08;99570.78;2046812;28;20520;-67
2021/04/22 00:47:23;;;;;;;7.00;6.30;;;;;;;19.88;48.07;99573.34;2046845;28;20038;-67
2021/04/22 00:48:25;;;;;;;9.65;6.90;;;;;;;19.87;48.01;99565.31;2047121;28;20046;-67
2021/04/22 00:49:26;;;;;;;9.23;7.38;;;;;;;19.88;47.95;99564.28;2046205;28;20050;-67
2021/04/22 00:50:31;;;;;;;8.00;6.33;;;;;;;19.86;48.13;99574.53;2045636;28;20072;-67
2021/04/22 00:51:32;;;;;;;8.00;6.57;;;;;;;19.86;47.93;99556.22;2049675;28;20031;-67
2021/04/22 00:52:33;;;;;;;9.27;6.70;;;;;;;19.87;47.92;99565.31;2051808;28;20086;-68
2021/04/22 00:53:45;;;;;;;7.97;6.03;;;;;;;19.85;48.00;99561.91;2046467;28;20200;-67
2021/04/22 00:54:46;;;;;;;8.10;6.68;;;;;;;19.87;48.03;99570.78;2045760;29;20027;-67
2021/04/22 00:55:48;;;;;;;7.53;6.30;;;;;;;19.86;48.01;99561.69;2047092;28;20062;-67
2021/04/22 00:56:50;;;;;;;8.73;6.72;;;;;;;19.86;47.99;99569.06;2045527;29;20042;-67
2021/04/22 00:57:51;;;;;;;7.70;6.28;;;;;;;19.87;47.86;99565.31;2044353;29;20457;-67
2021/04/22 00:58:51;;;;;;;8.47;7.07;;;;;;;19.86;47.95;99558.97;2046783;28;20027;-68
2021/04/22 00:59:52;;;;;;;8.93;6.50;;;;;;;19.85;47.89;99561.91;2045706;28;20110;-67
2021/04/22 01:00:54;;;;;;;7.03;6.33;;;;;;;19.85;47.87;99562.75;2047008;29;20027;-68
2021/04/22 01:01:54;;;;;;;8.63;6.70;;;;;;;19.86;47.95;99564.44;2045631;28;20050;-68
2021/04/22 01:02:55;;;;;;;7.17;6.10;;;;;;;19.86;47.99;99566.31;2046638;29;20031;-68
2021/04/22 01:03:55;;;;;;;7.50;6.23;;;;;;;19.86;47.90;99558.13;2045369;29;20042;-68
2021/04/22 01:04:56;;;;;;;8.03;6.13;;;;;;;19.87;47.83;99559.84;2045624;29;20375;-68
2021/04/22 01:06:02;;;;;;;9.90;6.63;;;;;;;19.86;47.86;99552.66;2046244;28;20038;-68
2021/04/22 01:07:03;;;;;;;8.70;6.47;;;;;;;19.85;47.96;99556.41;2049505;28;20098;-68
2021/04/22 01:08:04;;;;;;;7.63;5.93;;;;;;;19.86;47.82;99552.66;2045891;28;20034;-68
2021/04/22 01:09:05;;;;;;;8.57;6.27;;;;;;;19.86;47.77;99553.50;2045376;28;20023;-68
2021/04/22 01:10:06;;;;;;;7.50;5.90;;;;;;;19.86;47.77;99545.28;2047072;28;20120;-68
2021/04/22 01:11:07;;;;;;;7.10;5.95;;;;;;;19.86;47.78;99548.03;2040828;29;20035;-67
2021/04/22 01:12:09;;;;;;;9.00;6.03;;;;;;;19.87;47.81;99546.19;2041960;29;20133;-67
2021/04/22 01:13:10;;;;;;;7.97;6.40;;;;;;;19.87;47.78;99544.28;2039418;29;20087;-68
2021/04/22 01:14:10;;;;;;;8.37;6.20;;;;;;;19.87;47.73;99543.44;2042293;29;20027;-67
2021/04/22 01:15:16;;;;;;;9.40;6.20;;;;;;;19.86;47.67;99539.81;2040383;29;20043;-67
2021/04/22 01:16:17;;;;;;;7.45;5.80;;;;;;;19.88;47.62;99550.59;2044836;28;20039;-67
2021/04/22 01:17:17;;;;;;;7.50;6.70;;;;;;;19.88;47.70;99545.13;2048624;28;20881;-67
2021/04/22 01:18:18;;;;;;;8.00;6.13;;;;;;;19.88;47.61;99545.13;2047478;28;20167;-67
2021/04/22 01:19:27;;;;;;;6.87;5.80;;;;;;;19.87;47.55;99548.91;2045347;29;20035;-68
2021/04/22 01:20:42;;;;;;;7.40;5.82;;;;;;;19.85;47.59;99551.81;2045243;28;21438;-67
2021/04/22 01:21:43;;;;;;;7.93;6.18;;;;;;;19.86;47.68;99547.19;2039353;29;20146;-67
2021/04/22 01:22:44;;;;;;;7.13;5.97;;;;;;;19.85;47.72;99540.84;2045678;29;20614;-68
2021/04/22 01:23:45;;;;;;;7.15;5.65;;;;;;;19.85;47.67;99537.28;2046750;29;20736;-67
2021/04/22 01:24:45;;;;;;;8.23;7.03;;;;;;;19.86;47.63;99541.72;2046450;28;20035;-67
2021/04/22 01:25:49;;;;;;;8.27;6.17;;;;;;;19.85;47.62;99534.53;2045468;28;20027;-67
2021/04/22 01:26:50;;;;;;;7.63;6.03;;;;;;;19.86;47.69;99538.97;2039224;29;20035;-67
2021/04/22 01:27:51;;;;;;;7.93;6.07;;;;;;;19.85;47.76;99540.00;2042019;29;20028;-67
2021/04/22 01:28:52;;;;;;;7.30;5.95;;;;;;;19.84;47.66;99539.16;2041057;29;20908;-68
2021/04/22 01:29:53;;;;;;;9.40;6.32;;;;;;;19.84;47.69;99536.44;2045248;28;20410;-67
2021/04/22 01:30:55;;;;;;;8.23;5.60;;;;;;;19.83;47.61;99536.59;2046197;28;20023;-67
2021/04/22 01:31:56;;;;;;;7.50;6.38;;;;;;;19.82;47.58;99538.47;2046296;28;20046;-67
2021/04/22 01:32:57;;;;;;;7.70;6.43;;;;;;;19.83;47.66;99536.59;2046425;29;20055;-68
2021/04/22 01:34:04;;;;;;;7.45;6.38;;;;;;;19.82;47.56;99537.59;2046686;28;20034;-68
2021/04/22 01:35:07;;;;;;;6.57;5.45;;;;;;;19.82;47.64;99541.22;2045980;29;20050;-67
2021/04/22 01:36:08;;;;;;;7.38;6.10;;;;;;;19.82;47.64;99534.84;2043485;28;20039;-68
2021/04/22 01:37:09;;;;;;;8.73;5.82;;;;;;;19.81;47.55;99538.63;2047128;28;20733;-67
2021/04/22 01:38:11;;;;;;;7.67;5.57;;;;;;;19.81;47.69;99530.41;2042307;29;20167;-67
2021/04/22 01:39:13;;;;;;;6.97;5.82;;;;;;;19.81;47.56;99539.47;2043609;28;20559;-68
2021/04/22 01:40:15;;;;;;;7.53;5.85;;;;;;;19.80;47.68;99542.41;2046654;28;20030;-67
2021/04/22 01:41:17;;;;;;;6.53;5.72;;;;;;;19.81;47.55;99533.16;2046712;28;20035;-67
2021/04/22 01:42:17;;;;;;;6.80;5.15;;;;;;;19.79;47.56;99524.25;2046504;29;20053;-68
2021/04/22 01:43:18;;;;;;;7.90;6.33;;;;;;;19.78;47.53;99537.09;2046225;28;20486;-67
2021/04/22 01:44:18;;;;;;;7.80;6.60;;;;;;;19.79;47.59;99537.94;2041775;29;20035;-68
2021/04/22 01:45:19;;;;;;;7.53;6.00;;;;;;;19.79;47.64;99535.19;2046417;29;20062;-68
2021/04/22 01:46:20;;;;;;;8.13;5.87;;;;;;;19.79;47.59;99535.19;2046688;28;20062;-68
2021/04/22 01:47:20;;;;;;;6.97;5.43;;;;;;;19.79;47.63;99535.19;2041927;28;20119;-68
2021/04/22 01:48:21;;;;;;;7.33;5.60;;;;;;;19.78;47.50;99534.34;2046492;29;20540;-68
2021/04/22 01:49:22;;;;;;;7.93;6.28;;;;;;;19.78;47.56;99537.09;2046402;28;20085;-68
2021/04/22 01:50:25;;;;;;;8.43;5.80;;;;;;;19.77;47.57;99529.91;2046098;28;20114;-67
2021/04/22 01:51:26;;;;;;;7.43;6.05;;;;;;;19.78;47.58;99533.50;2049205;28;20117;-69
2021/04/22 01:52:27;;;;;;;6.83;5.53;;;;;;;19.79;47.56;99540.66;2045893;29;20035;-67
2021/04/22 01:53:27;;;;;;;7.20;5.67;;;;;;;19.78;47.62;99538.97;2045439;29;20483;-67
2021/04/22 01:54:28;;;;;;;9.20;6.00;;;;;;;19.77;47.52;99537.25;2048051;28;20059;-68
2021/04/22 01:55:43;;;;;;;8.27;6.00;;;;;;;19.76;47.52;99535.53;2044170;28;20054;-68
2021/04/22 01:56:43;;;;;;;7.03;5.30;;;;;;;19.76;47.53;99536.41;2045338;29;20266;-67
2021/04/22 01:57:44;;;;;;;6.30;5.23;;;;;;;19.76;47.55;99535.53;2045546;29;20127;-68
2021/04/22 01:58:45;;;;;;;9.10;7.53;;;;;;;19.76;47.67;99538.28;2045925;29;20570;-67
2021/04/22 01:59:46;;;;;;;7.07;5.43;;;;;;;19.74;47.53;99532.97;2042647;28;20027;-69
2021/04/22 02:00:52;;;;;;;6.97;5.70;;;;;;;19.74;47.56;99534.84;2046288;29;20089;-67
2021/04/22 02:01:52;;;;;;;8.88;5.88;;;;;;;19.74;47.46;99535.69;2045699;29;20349;-67
2021/04/22 02:02:53;;;;;;;7.33;5.40;;;;;;;19.74;47.47;99534.84;2046774;28;20031;-67
2021/04/22 02:03:53;;;;;;;7.53;5.90;;;;;;;19.74;47.43;99532.13;2046299;28;20450;-67
2021/04/22 02:04:54;;;;;;;6.93;5.43;;;;;;;19.74;47.51;99532.13;2044655;28;20085;-67
2021/04/22 02:05:55;;;;;;;6.60;5.60;;;;;;;19.74;47.44;99532.13;2046682;28;20108;-67
2021/04/22 02:06:56;;;;;;;7.60;6.22;;;;;;;19.73;47.58;99531.25;2044569;28;20050;-67
2021/04/22 02:07:56;;;;;;;6.47;5.47;;;;;;;19.74;47.55;99526.66;2046658;29;20066;-68
2021/04/22 02:08:57;;;;;;;6.37;5.37;;;;;;;19.72;47.44;99518.63;2046101;28;20071;-68
2021/04/22 02:09:57;;;;;;;7.33;5.10;;;;;;;19.73;47.48;99524.94;2046582;28;20035;-68
2021/04/22 02:10:59;;;;;;;7.03;5.57;;;;;;;19.72;47.56;99523.22;2041483;29;20197;-67
2021/04/22 02:12:00;;;;;;;5.88;5.25;;;;;;;19.73;47.46;99522.22;2041457;29;20031;-68
2021/04/22 02:13:02;;;;;;;6.40;5.45;;;;;;;19.72;47.44;99525.94;2046144;28;20133;-67
2021/04/22 02:14:02;;;;;;;6.25;5.60;;;;;;;19.72;47.49;99525.94;2044007;28;20035;-68
2021/04/22 02:15:05;;;;;;;6.57;5.50;;;;;;;19.72;47.44;99528.69;2043577;29;20074;-67
2021/04/22 02:16:06;;;;;;;7.10;6.22;;;;;;;19.70;47.41;99532.47;2045754;29;20046;-67
2021/04/22 02:17:07;;;;;;;7.80;5.33;;;;;;;19.71;47.53;99527.84;2045248;28;20039;-67
2021/04/22 02:18:07;;;;;;;6.53;4.90;;;;;;;19.70;47.50;99527.00;2046200;28;20023;-67
2021/04/22 02:19:08;;;;;;;7.20;5.37;;;;;;;19.69;47.42;99519.78;2045603;28;20036;-67
2021/04/22 02:20:10;;;;;;;7.33;5.40;;;;;;;19.70;47.38;99529.72;2045358;28;20130;-67
2021/04/22 02:21:11;;;;;;;7.00;5.55;;;;;;;19.68;47.41;99520.81;2046331;28;20031;-67
2021/04/22 02:22:11;;;;;;;7.27;5.90;;;;;;;19.68;47.52;99529.03;2046691;28;20061;-67
2021/04/22 02:23:15;;;;;;;6.47;5.27;;;;;;;19.68;47.39;99520.81;2045418;28;20133;-68
2021/04/22 02:24:16;;;;;;;6.63;5.40;;;;;;;19.69;47.34;99525.25;2046467;28;20063;-67
2021/04/22 02:25:19;;;;;;;7.13;5.90;;;;;;;19.70;47.35;99521.53;2046316;28;20031;-67
2021/04/22 02:26:19;;;;;;;7.05;4.80;;;;;;;19.70;47.33;99526.13;2044352;29;20039;-67
2021/04/22 02:27:20;;;;;;;6.17;5.43;;;;;;;19.69;47.39;99519.78;2046165;29;20035;-67
2021/04/22 02:28:20;;;;;;;7.33;6.03;;;;;;;19.70;47.30;99526.13;2043149;29;20343;-67
2021/04/22 02:29:20;;;;;;;5.80;5.10;;;;;;;19.70;47.27;99521.53;2053560;28;20050;-67
2021/04/22 02:30:23;;;;;;;7.23;5.83;;;;;;;19.69;47.38;99525.25;2051037;28;20029;-67
2021/04/22 02:31:23;;;;;;;7.97;5.82;;;;;;;19.70;47.21;99527.00;2045667;28;20102;-67
2021/04/22 02:32:24;;;;;;;6.03;5.20;;;;;;;19.70;47.32;99527.00;2046476;29;20170;-66
2021/04/22 02:33:24;;;;;;;7.03;5.70;;;;;;;19.70;47.26;99524.25;2042147;28;20805;-67
2021/04/22 02:34:25;;;;;;;7.23;5.67;;;;;;;19.70;47.21;99526.13;2042995;29;20042;-67
2021/04/22 02:35:32;;;;;;;7.83;6.93;;;;;;;19.70;47.22;99524.25;2049024;28;20105;-67
2021/04/22 02:36:33;;;;;;;7.22;5.80;;;;;;;19.72;47.22;99528.69;2035672;29;20669;-66
2021/04/22 02:37:34;;;;;;;7.13;5.33;;;;;;;19.70;47.14;99527.00;2041369;29;20447;-67
2021/04/22 02:38:35;;;;;;;6.32;5.20;;;;;;;19.72;47.25;99529.56;2043011;28;20042;-67
2021/04/22 02:39:35;;;;;;;6.43;5.00;;;;;;;19.72;47.15;99517.75;2043765;29;20037;-67
2021/04/22 02:40:38;;;;;;;5.83;5.03;;;;;;;19.72;47.14;99526.84;2040452;28;20034;-67
2021/04/22 02:41:39;;;;;;;6.43;5.10;;;;;;;19.73;47.12;99519.47;2045698;28;20117;-67
2021/04/22 02:42:40;;;;;;;7.33;5.70;;;;;;;19.73;47.13;99519.47;2041380;29;20046;-67
2021/04/22 02:43:40;;;;;;;6.55;5.35;;;;;;;19.72;47.14;99525.94;2043023;28;20126;-67
2021/04/22 02:44:41;;;;;;;6.53;5.03;;;;;;;19.72;47.15;99525.94;2044095;29;20035;-67
2021/04/22 02:45:45;;;;;;;5.53;4.47;;;;;;;19.71;47.09;99519.63;2046105;28;20114;-67
2021/04/22 02:46:46;;;;;;;7.13;5.40;;;;;;;19.70;47.06;99518.78;2045867;28;20023;-69
2021/04/22 02:47:47;;;;;;;5.75;4.82;;;;;;;19.70;47.29;99520.66;2045957;29;20027;-67
2021/04/22 02:48:47;;;;;;;6.67;5.37;;;;;;;19.70;46.83;99516.06;2046668;28;20031;-68
2021/04/22 02:49:47;;;;;;;6.10;5.20;;;;;;;19.69;47.07;99525.25;2044211;28;20042;-67
2021/04/22 02:50:50;;;;;;;8.70;5.77;;;;;;;19.69;47.15;99530.72;2049308;28;20405;-68
2021/04/22 02:51:51;;;;;;;7.28;5.50;;;;;;;19.69;47.17;99525.25;2046538;28;20041;-67
2021/04/22 02:52:51;;;;;;;7.17;5.27;;;;;;;19.69;47.18;99524.41;2046167;28;20027;-67
2021/04/22 02:53:52;;;;;;;5.43;4.80;;;;;;;19.68;47.18;99523.56;2046602;28;20066;-67
2021/04/22 02:54:52;;;;;;;6.13;5.13;;;;;;;19.68;47.15;99523.56;2043130;28;20034;-67
2021/04/22 02:55:53;;;;;;;6.43;5.33;;;;;;;19.68;47.00;99518.09;2046470;28;20119;-68
2021/04/22 02:56:53;;;;;;;6.50;4.90;;;;;;;19.68;47.16;99515.34;2040860;28;20093;-67
2021/04/22 02:57:54;;;;;;;6.13;5.13;;;;;;;19.68;47.08;99518.09;2043041;29;20035;-68
2021/04/22 02:58:54;;;;;;;7.00;5.37;;;;;;;19.68;46.99;99512.63;2046514;29;20063;-68
2021/04/22 02:59:55;;;;;;;7.37;5.30;;;;;;;19.66;47.03;99514.63;2045514;28;20027;-67
2021/04/22 03:00:56;;;;;;;6.27;4.87;;;;;;;19.65;47.03;99507.47;2045388;29;20102;-68
2021/04/22 03:01:56;;;;;;;7.82;5.57;;;;;;;19.68;47.08;99512.63;2045262;29;20453;-67
2021/04/22 03:02:57;;;;;;;7.07;5.00;;;;;;;19.66;47.08;99514.63;2046259;28;20138;-67
2021/04/22 03:03:57;;;;;;;6.77;5.90;;;;;;;19.66;47.04;99505.59;2046177;28;20050;-67
2021/04/22 03:04:58;;;;;;;6.37;5.00;;;;;;;19.66;47.03;99503.69;2045462;28;20042;-67
2021/04/22 03:05:59;;;;;;;7.17;5.57;;;;;;;19.66;47.08;99503.69;2045216;29;20055;-67
2021/04/22 03:06:59;;;;;;;6.38;5.40;;;;;;;19.65;46.96;99496.53;2042475;29;20122;-67
2021/04/22 03:08:00;;;;;;;6.47;5.33;;;;;;;19.65;47.05;99504.72;2045703;29;20030;-67
2021/04/22 03:09:01;;;;;;;6.60;4.40;;;;;;;19.66;47.04;99503.69;2045676;28;20062;-67
2021/04/22 03:10:03;;;;;;;6.53;4.97;;;;;;;19.65;47.12;99502.00;2046002;28;20035;-67
2021/04/22 03:11:03;;;;;;;;;;;;;;;19.60;47.02;99501.66;2046132;28;20039;-67
2021/04/22 03:12:05;;;;;;;6.75;5.35;;;;;;;19.62;47.07;99507.81;2046138;28;19918;-67
2021/04/22 03:13:05;;;;;;;;;;;;;;;19.57;47.08;99501.97;2046305;29;20443;-67
2021/04/22 03:14:06;;;;;;;6.57;4.60;;;;;;;19.58;47.20;99500.97;2046495;28;19914;-68
2021/04/22 03:15:07;;;;;;;6.03;4.93;;;;;;;19.58;47.13;99505.56;2042682;28;20043;-67
2021/04/22 03:16:08;;;;;;;5.82;5.13;;;;;;;19.60;47.13;99503.50;2045001;28;20035;-67
2021/04/22 03:17:08;;;;;;;5.87;4.60;;;;;;;19.59;47.06;99501.81;2045137;28;20091;-67
2021/04/22 03:18:10;;;;;;;6.57;5.00;;;;;;;19.59;47.05;99502.66;2045662;28;20042;-66
2021/04/22 03:19:10;;;;;;;7.28;5.00;;;;;;;19.59;47.06;99497.19;2046134;28;20046;-68
2021/04/22 03:20:13;;;;;;;6.80;4.90;;;;;;;19.60;46.98;99501.66;2045957;29;20030;-67
2021/04/22 03:21:13;;;;;;;7.63;5.13;;;;;;;19.60;46.97;99493.44;2045998;28;20086;-67
2021/04/22 03:22:14;;;;;;;5.40;4.73;;;;;;;19.60;46.96;99501.66;2046208;29;20207;-67
2021/04/22 03:23:14;;;;;;;5.70;4.57;;;;;;;19.61;47.02;99499.75;2043054;28;20055;-67
2021/04/22 03:24:15;;;;;;;6.80;5.27;;;;;;;19.61;47.05;99499.75;2045093;28;20042;-67
2021/04/22 03:25:17;;;;;;;5.47;4.57;;;;;;;19.60;47.01;99500.78;2047100;28;20035;-67
2021/04/22 03:26:18;;;;;;;5.20;4.40;;;;;;;19.60;47.05;99508.97;2046199;28;20082;-67
2021/04/22 03:27:19;;;;;;;5.77;4.87;;;;;;;19.60;47.01;99501.66;2044887;29;20186;-67
2021/04/22 03:28:19;;;;;;;6.30;4.37;;;;;;;19.58;47.02;99500.97;2045185;29;20103;-67
2021/04/22 03:29:20;;;;;;;5.53;4.23;;;;;;;19.59;47.11;99499.06;2053198;28;20149;-67
2021/04/22 03:30:24;;;;;;;5.93;5.00;;;;;;;19.58;47.04;99498.22;2041258;28;20032;-67
2021/04/22 03:31:25;;;;;;;6.05;4.85;;;;;;;19.57;47.03;99499.22;2048302;28;20105;-68
2021/04/22 03:32:26;;;;;;;5.70;4.43;;;;;;;19.57;47.01;99499.22;2047286;28;20039;-68
2021/04/22 03:33:27;;;;;;;5.90;5.10;;;;;;;19.57;46.95;99499.22;2047572;29;20516;-67
2021/04/22 03:34:27;;;;;;;5.00;4.43;;;;;;;19.57;46.94;99495.66;2047554;28;20399;-67
2021/04/22 03:35:27;;;;;;;6.63;5.33;;;;;;;19.57;47.03;99498.38;2047283;29;20051;-67
2021/04/22 03:36:28;;;;;;;7.17;5.10;;;;;;;19.57;46.96;99499.22;2046944;28;20031;-67
2021/04/22 03:37:28;;;;;;;5.53;4.90;;;;;;;19.57;46.91;99506.59;2044150;29;20511;-68
2021/04/22 03:38:29;;;;;;;5.47;4.57;;;;;;;19.56;46.97;99497.53;2055018;28;20039;-67
2021/04/22 03:39:29;;;;;;;5.50;4.50;;;;;;;19.56;47.06;99499.41;2054832;28;20041;-68
2021/04/22 03:40:30;;;;;;;5.33;4.50;;;;;;;19.55;47.00;99495.84;2043154;28;20107;-68
2021/04/22 03:41:30;;;;;;;5.93;4.73;;;;;;;19.55;46.88;99498.56;2041137;29;20115;-67
2021/04/22 03:42:31;;;;;;;6.20;5.27;;;;;;;19.55;47.04;99494.94;2045723;29;20031;-68
2021/04/22 03:43:31;;;;;;;6.00;4.90;;;;;;;19.55;46.95;99490.38;2047941;29;20466;-68
2021/04/22 03:44:32;;;;;;;6.33;4.67;;;;;;;19.56;46.99;99493.94;2046350;28;20650;-67
2021/04/22 03:45:32;;;;;;;6.50;5.13;;;;;;;19.56;46.96;99493.94;2045444;28;20280;-67
2021/04/22 03:46:33;;;;;;;5.77;4.50;;;;;;;19.55;46.85;99490.38;2047231;28;20034;-67
2021/04/22 03:47:33;;;;;;;7.00;4.93;;;;;;;19.55;46.88;99494.94;2047419;28;20097;-67
2021/04/22 03:48:34;;;;;;;6.37;4.67;;;;;;;19.55;46.84;99493.09;2047793;29;20043;-67
2021/04/22 03:49:34;;;;;;;5.93;4.77;;;;;;;19.55;46.88;99490.38;2047533;28;20034;-67
2021/04/22 03:50:35;;;;;;;6.40;5.03;;;;;;;19.55;47.02;99484.91;2043657;29;20435;-67
2021/04/22 03:51:35;;;;;;;6.10;4.73;;;;;;;19.56;46.95;99486.59;2047592;28;20047;-67
2021/04/22 03:52:36;;;;;;;6.67;5.20;;;;;;;19.57;46.82;99496.50;2046966;29;20027;-68
2021/04/22 03:53:37;;;;;;;7.07;5.72;;;;;;;19.57;46.88;99493.75;2047582;28;20042;-68
2021/04/22 03:54:37;;;;;;;4.60;4.13;;;;;;;19.58;46.91;99495.50;2047431;29;20595;-68
2021/04/22 03:55:38;;;;;;;5.60;4.73;;;;;;;19.57;46.83;99491.03;2041432;29;20073;-68
2021/04/22 03:56:39;;;;;;;7.10;5.23;;;;;;;19.59;46.78;99490.88;2044986;28;20793;-68
2021/04/22 03:57:40;;;;;;;6.20;4.97;;;;;;;19.59;46.83;99485.41;2047756;28;20110;-68
2021/04/22 03:58:40;;;;;;;4.70;4.10;;;;;;;19.59;46.82;99488.13;2045652;28;20035;-68
2021/04/22 03:59:41;;;;;;;5.77;4.40;;;;;;;19.59;46.75;99491.72;2042558;28;20038;-67
2021/04/22 04:00:42;;;;;;;6.77;4.63;;;;;;;19.60;46.84;99487.09;2046904;28;20486;-67
2021/04/22 04:01:42;;;;;;;5.77;4.40;;;;;;;19.60;46.92;99492.56;2046707;28;20125;-68
2021/04/22 04:02:42;;;;;;;6.37;5.17;;;;;;;19.59;46.79;99491.72;2042020;29;20042;-68
2021/04/22 04:03:43;;;;;;;5.70;4.70;;;;;;;19.58;46.75;99490.03;2046785;28;20624;-67
2021/04/22 04:04:44;;;;;;;5.07;4.30;;;;;;;19.59;46.78;99491.72;2042549;29;20027;-67
2021/04/22 04:05:44;;;;;;;5.27;4.20;;;;;;;19.59;46.88;99502.66;2047440;29;20374;-67
2021/04/22 04:06:45;;;;;;;6.57;4.50;;;;;;;19.59;46.83;99497.19;2047117;29;20039;-68
2021/04/22 04:07:46;;;;;;;5.80;4.63;;;;;;;19.58;46.82;99495.50;2040183;28;20355;-67
2021/04/22 04:08:47;;;;;;;6.78;5.18;;;;;;;19.58;46.95;99489.16;2047177;28;20023;-67
2021/04/22 04:09:47;;;;;;;7.10;5.03;;;;;;;19.58;46.82;99495.50;2045756;29;20034;-67
2021/04/22 04:10:48;;;;;;;5.30;4.50;;;;;;;19.58;46.83;99494.63;2047763;29;20054;-68
2021/04/22 04:11:49;;;;;;;6.53;4.53;;;;;;;19.57;46.70;99491.03;2045756;29;20506;-67
2021/04/22 04:12:49;;;;;;;5.60;4.40;;;;;;;19.58;46.84;99484.56;2047463;28;20800;-68
2021/04/22 04:13:50;;;;;;;4.83;3.93;;;;;;;19.58;46.83;99494.63;2047585;28;20023;-68
2021/04/22 04:14:51;;;;;;;5.50;4.78;;;;;;;19.58;46.82;99490.03;2044580;28;20106;-68
2021/04/22 04:15:51;;;;;;;5.83;4.77;;;;;;;19.58;46.84;99490.03;2044906;28;20039;-67
2021/04/22 04:16:52;;;;;;;4.47;4.07;;;;;;;19.57;46.75;99490.19;2045900;28;20031;-67
2021/04/22 04:17:52;;;;;;;7.07;5.10;;;;;;;19.57;46.79;99493.75;2045718;29;20027;-67
2021/04/22 04:18:53;;;;;;;5.17;4.30;;;;;;;19.56;46.74;99503.00;2046483;29;20050;-67
2021/04/22 04:19:53;;;;;;;5.00;4.43;;;;;;;19.57;46.79;99492.91;2047116;29;20058;-67
2021/04/22 04:20:53;;;;;;;5.60;4.33;;;;;;;19.57;46.76;99498.38;2047384;28;20600;-67
2021/04/22 04:21:54;;;;;;;6.90;4.30;;;;;;;19.57;46.71;99496.50;2046565;28;20505;-67
2021/04/22 04:22:55;;;;;;;5.43;4.27;;;;;;;19.56;46.76;99503.00;2047544;28;20035;-68
2021/04/22 04:23:55;;;;;;;5.80;4.57;;;;;;;19.55;46.57;99495.84;2046761;29;20085;-67
2021/04/22 04:24:56;;;;;;;4.90;4.43;;;;;;;19.56;46.69;99505.72;2046827;29;20019;-67
2021/04/22 04:25:56;;;;;;;5.13;4.23;;;;;;;19.56;46.65;99502.16;2045902;29;20629;-68
2021/04/22 04:26:57;;;;;;;7.40;4.27;;;;;;;19.54;46.65;99496.00;2049560;28;20093;-67
2021/04/22 04:27:57;;;;;;;7.50;4.60;;;;;;;19.55;46.67;99506.75;2054051;28;20117;-68
2021/04/22 04:28:57;;;;;;;5.37;4.30;;;;;;;19.54;46.70;99502.31;2050519;28;20082;-67
2021/04/22 04:29:58;;;;;;;6.67;4.70;;;;;;;19.54;46.73;99504.19;2047613;28;20574;-67
2021/04/22 04:30:59;;;;;;;5.67;4.17;;;;;;;19.54;46.50;99499.56;2046297;28;20031;-67
2021/04/22 04:31:59;;;;;;;4.97;4.33;;;;;;;19.54;46.66;99499.56;2047238;29;20023;-67
2021/04/22 04:33:00;;;;;;;4.90;3.93;;;;;;;19.53;46.69;99503.34;2047249;28;20783;-68
2021/04/22 04:34:00;;;;;;;6.15;4.75;;;;;;;19.54;46.62;99507.78;2046756;28;20031;-67
2021/04/22 04:35:01;;;;;;;6.33;4.43;;;;;;;19.53;46.67;99503.34;2047432;29;20081;-67
2021/04/22 04:36:02;;;;;;;5.83;4.63;;;;;;;19.52;46.69;99501.59;2046830;29;20097;-68
2021/04/22 04:37:05;;;;;;;5.85;4.35;;;;;;;19.53;46.69;99508.81;2047273;29;20842;-67
2021/04/22 04:38:06;;;;;;;6.18;4.35;;;;;;;19.52;46.70;99509.81;2044572;29;20031;-68
2021/04/22 04:39:07;;;;;;;6.03;4.63;;;;;;;19.52;46.72;99512.53;2046267;29;20027;-68
2021/04/22 04:40:10;;;;;;;5.13;4.63;;;;;;;19.51;46.60;99516.31;2047540;28;20031;-67
2021/04/22 04:41:11;;;;;;;5.30;4.00;;;;;;;19.52;46.56;99508.97;2046186;29;20035;-67
2021/04/22 04:42:11;;;;;;;5.03;4.17;;;;;;;19.52;46.72;99517.16;2047488;29;20082;-67
2021/04/22 04:43:12;;;;;;;4.63;4.10;;;;;;;19.51;46.65;99508.13;2046296;28;20031;-67
2021/04/22 04:44:13;;;;;;;5.07;4.03;;;;;;;19.51;46.66;99519.03;2051654;28;20093;-68
2021/04/22 04:45:17;;;;;;;5.23;4.07;;;;;;;19.51;46.63;99524.50;2046840;29;20049;-66
2021/04/22 04:46:18;;;;;;;4.97;4.15;;;;;;;19.51;46.77;99516.31;2046480;28;20202;-67
2021/04/22 04:47:18;;;;;;;5.37;4.37;;;;;;;19.51;46.68;99521.78;2047524;28;20143;-67
2021/04/22 04:48:19;;;;;;;5.27;4.17;;;;;;;19.50;46.73;99509.16;2047005;28;20028;-67